createdAt,value
2017-12-06T00:00:40.498Z,26.90
2017-12-06T00:01:42.976Z,28.08
2017-12-06T00:02:45.446Z,30.45
2017-12-06T00:03:47.933Z,25.35
2017-12-06T00:04:50.399Z,23.73
2017-12-06T00:05:52.862Z,25.17
2017-12-06T00:06:55.317Z,27.80
2017-12-06T00:07:57.778Z,32.15
2017-12-06T00:09:00.254Z,32.35
2017-12-06T00:10:02.729Z,26.62
2017-12-06T00:11:05.194Z,24.95
2017-12-06T00:13:49.401Z,27.17
2017-12-06T00:14:57.427Z,22.65
2017-12-06T00:15:59.888Z,32.30
2017-12-06T00:17:02.368Z,27.17
2017-12-06T00:18:04.871Z,25.52
2017-12-06T00:19:07.333Z,26.73
2017-12-06T00:20:09.816Z,28.45
2017-12-06T00:21:12.291Z,27.08
2017-12-06T00:22:14.766Z,26.02
2017-12-06T00:23:17.262Z,27.10
2017-12-06T00:24:19.732Z,26.27
2017-12-06T00:25:22.202Z,32.72
2017-12-06T00:26:24.666Z,27.73
2017-12-06T00:27:27.129Z,26.33
2017-12-06T00:28:29.614Z,33.28
2017-12-06T00:29:32.096Z,27.65
2017-12-06T00:30:34.559Z,23.45
2017-12-06T00:31:37.034Z,24.67
2017-12-06T00:32:39.533Z,28.60
2017-12-06T00:33:42.036Z,26.73
2017-12-06T00:34:44.520Z,27.80
2017-12-06T00:35:46.986Z,24.20
2017-12-06T00:36:49.444Z,26.73
2017-12-06T00:37:51.908Z,27.92
2017-12-06T00:38:54.397Z,29.02
2017-12-06T00:39:56.862Z,25.20
2017-12-06T00:40:59.352Z,25.85
2017-12-06T00:42:01.828Z,29.08
2017-12-06T00:43:04.318Z,31.25
2017-12-06T00:44:06.831Z,31.00
2017-12-06T00:45:09.294Z,27.52
2017-12-06T00:46:11.768Z,31.87
2017-12-06T00:47:14.256Z,29.08
2017-12-06T00:48:16.718Z,35.70
2017-12-06T00:49:19.203Z,34.45
2017-12-06T00:50:21.680Z,29.90
2017-12-06T00:51:24.157Z,31.77
2017-12-06T00:52:26.618Z,32.50
2017-12-06T00:53:29.093Z,31.20
2017-12-06T00:54:31.574Z,29.37
2017-12-06T00:55:34.039Z,39.33
2017-12-06T00:56:36.512Z,31.55
2017-12-06T00:57:38.984Z,29.80
2017-12-06T00:58:41.446Z,33.90
2017-12-06T00:59:43.930Z,32.83
2017-12-06T01:00:46.390Z,32.00
2017-12-06T01:01:48.875Z,28.60
2017-12-06T01:02:51.346Z,33.05
2017-12-06T01:03:53.814Z,28.77
2017-12-06T01:04:57.341Z,30.10
2017-12-06T01:05:59.807Z,32.90
2017-12-06T01:07:02.292Z,30.35
2017-12-06T01:08:04.762Z,33.92
2017-12-06T01:09:07.240Z,30.58
2017-12-06T01:10:09.747Z,35.80
2017-12-06T01:11:12.224Z,31.58
2017-12-06T01:12:14.698Z,26.98
2017-12-06T01:13:17.172Z,31.27
2017-12-06T01:14:19.662Z,27.20
2017-12-06T01:15:22.145Z,28.35
2017-12-06T01:16:24.607Z,32.47
2017-12-06T01:17:27.073Z,29.85
2017-12-06T01:18:29.537Z,25.40
2017-12-06T01:19:32.000Z,29.25
2017-12-06T01:20:34.553Z,31.10
2017-12-06T01:21:37.034Z,26.87
2017-12-06T01:22:39.502Z,35.47
2017-12-06T01:23:41.967Z,30.85
2017-12-06T01:24:44.440Z,30.05
2017-12-06T01:25:46.946Z,33.83
2017-12-06T01:26:49.404Z,32.70
2017-12-06T01:27:52.019Z,29.30
2017-12-06T01:28:54.491Z,27.42
2017-12-06T01:29:56.969Z,31.95
2017-12-06T01:30:59.445Z,27.70
2017-12-06T01:32:01.922Z,34.45
2017-12-06T01:33:04.388Z,29.63
2017-12-06T01:34:06.863Z,26.02
2017-12-06T01:35:09.332Z,31.42
2017-12-06T01:36:11.828Z,28.10
2017-12-06T01:37:14.311Z,25.08
2017-12-06T01:38:16.781Z,30.77
2017-12-06T01:39:19.238Z,29.65
2017-12-06T01:40:21.705Z,28.40
2017-12-06T01:41:24.190Z,29.65
2017-12-06T01:42:26.655Z,28.02
2017-12-06T01:43:29.114Z,28.77
2017-12-06T01:44:31.588Z,30.15
2017-12-06T01:45:34.047Z,32.60
2017-12-06T01:46:36.573Z,30.23
2017-12-06T01:47:39.054Z,31.05
2017-12-06T01:48:41.525Z,29.40
2017-12-06T01:49:43.989Z,33.00
2017-12-06T01:50:46.468Z,38.95
2017-12-06T01:51:48.950Z,25.77
2017-12-06T01:52:51.420Z,31.17
2017-12-06T01:53:53.881Z,26.55
2017-12-06T01:54:56.343Z,31.50
2017-12-06T01:55:58.821Z,32.60
2017-12-06T01:57:01.332Z,30.12
2017-12-06T01:58:03.805Z,34.38
2017-12-06T01:59:06.284Z,29.90
2017-12-06T02:00:08.739Z,32.53
2017-12-06T02:01:11.203Z,27.80
2017-12-06T02:02:13.701Z,29.00
2017-12-06T02:03:16.176Z,27.92
2017-12-06T02:04:18.635Z,33.75
2017-12-06T02:05:21.091Z,31.70
2017-12-06T02:06:23.585Z,33.72
2017-12-06T02:07:26.071Z,31.77
2017-12-06T02:08:28.548Z,29.63
2017-12-06T02:09:31.020Z,31.60
2017-12-06T02:10:33.488Z,35.08
2017-12-06T02:11:35.964Z,33.20
2017-12-06T02:12:38.455Z,32.42
2017-12-06T02:13:40.910Z,29.05
2017-12-06T02:14:43.390Z,32.47
2017-12-06T02:15:45.858Z,32.88
2017-12-06T02:16:48.319Z,27.75
2017-12-06T02:17:50.794Z,30.58
2017-12-06T02:18:53.277Z,35.58
2017-12-06T02:19:55.734Z,33.53
2017-12-06T02:20:58.211Z,32.72
2017-12-06T02:22:00.680Z,31.92
2017-12-06T02:23:03.158Z,35.67
2017-12-06T02:24:05.618Z,32.25
2017-12-06T02:25:08.078Z,31.73
2017-12-06T02:26:10.552Z,30.77
2017-12-06T02:27:13.020Z,33.90
2017-12-06T02:28:15.528Z,38.40
2017-12-06T02:29:17.999Z,34.83
2017-12-06T02:30:20.460Z,33.35
2017-12-06T02:31:22.931Z,37.05
2017-12-06T02:32:25.405Z,33.00
2017-12-06T02:33:27.892Z,28.52
2017-12-06T02:34:30.373Z,37.15
2017-12-06T02:35:32.834Z,32.38
2017-12-06T02:36:35.310Z,32.10
2017-12-06T02:37:37.789Z,31.85
2017-12-06T02:38:40.271Z,38.15
2017-12-06T02:39:54.568Z,35.72
2017-12-06T02:41:08.888Z,31.35
2017-12-06T02:42:23.226Z,28.08
2017-12-06T02:43:37.404Z,29.95
2017-12-06T02:44:51.661Z,29.92
2017-12-06T02:45:54.135Z,26.52
2017-12-06T02:46:56.595Z,27.55
2017-12-06T02:47:59.077Z,30.45
2017-12-06T02:49:01.612Z,26.02
2017-12-06T02:50:04.074Z,30.15
2017-12-06T02:51:06.556Z,30.80
2017-12-06T02:52:09.062Z,29.58
2017-12-06T02:53:11.503Z,31.40
2017-12-06T02:54:14.006Z,30.42
2017-12-06T02:55:16.472Z,29.20
2017-12-06T02:56:18.931Z,32.78
2017-12-06T02:57:21.393Z,28.02
2017-12-06T02:58:23.870Z,28.92
2017-12-06T02:59:26.377Z,29.25
2017-12-06T03:00:28.859Z,29.05
2017-12-06T03:01:31.323Z,30.00
2017-12-06T03:02:33.785Z,27.55
2017-12-06T03:03:36.264Z,27.73
2017-12-06T03:04:38.742Z,24.33
2017-12-06T03:05:41.225Z,27.67
2017-12-06T03:06:43.682Z,28.75
2017-12-06T03:07:46.891Z,19.30
2017-12-06T03:08:49.351Z,26.52
2017-12-06T03:09:51.854Z,28.10
2017-12-06T03:10:54.310Z,25.27
2017-12-06T03:11:56.784Z,30.58
2017-12-06T03:12:59.261Z,28.23
2017-12-06T03:14:01.742Z,24.70
2017-12-06T03:15:04.256Z,24.42
2017-12-06T03:16:06.736Z,27.40
2017-12-06T03:17:09.201Z,29.73
2017-12-06T03:18:11.669Z,25.77
2017-12-06T03:19:14.132Z,26.55
2017-12-06T03:20:16.633Z,31.77
2017-12-06T03:21:19.094Z,30.60
2017-12-06T03:22:21.573Z,23.85
2017-12-06T03:23:24.048Z,30.37
2017-12-06T03:24:26.524Z,36.00
2017-12-06T03:25:29.020Z,30.58
2017-12-06T03:26:31.508Z,31.27
2017-12-06T03:27:33.980Z,27.62
2017-12-06T03:28:36.468Z,26.87
2017-12-06T03:29:38.948Z,30.88
2017-12-06T03:30:41.441Z,26.52
2017-12-06T03:31:43.898Z,29.42
2017-12-06T03:32:46.359Z,32.65
2017-12-06T03:33:48.823Z,28.87
2017-12-06T03:34:51.304Z,31.65
2017-12-06T03:35:53.801Z,32.45
2017-12-06T03:36:56.296Z,29.15
2017-12-06T03:37:58.749Z,28.27
2017-12-06T03:39:01.227Z,27.80
2017-12-06T03:40:03.695Z,32.80
2017-12-06T03:41:06.200Z,27.10
2017-12-06T03:42:08.684Z,29.42
2017-12-06T03:43:11.192Z,32.10
2017-12-06T03:44:13.651Z,29.25
2017-12-06T03:45:16.110Z,31.40
2017-12-06T03:46:18.620Z,31.90
2017-12-06T03:47:21.084Z,29.17
2017-12-06T03:48:23.560Z,34.38
2017-12-06T03:49:26.017Z,35.15
2017-12-06T03:50:28.497Z,36.63
2017-12-06T03:51:30.988Z,37.88
2017-12-06T03:52:33.475Z,33.10
2017-12-06T03:53:35.952Z,35.05
2017-12-06T03:54:38.429Z,37.67
2017-12-06T03:55:41.036Z,36.25
2017-12-06T03:56:43.523Z,29.48
2017-12-06T03:57:46.676Z,32.85
2017-12-06T03:58:49.160Z,36.33
2017-12-06T03:59:51.630Z,36.63
2017-12-06T04:00:54.113Z,33.78
2017-12-06T04:01:56.657Z,31.00
2017-12-06T04:02:59.126Z,34.47
2017-12-06T04:04:01.665Z,32.15
2017-12-06T04:05:04.082Z,34.95
2017-12-06T04:06:06.560Z,36.33
2017-12-06T04:07:09.042Z,33.67
2017-12-06T04:08:11.518Z,29.83
2017-12-06T04:09:13.982Z,32.60
2017-12-06T04:10:16.438Z,33.45
2017-12-06T04:11:18.982Z,30.10
2017-12-06T04:12:21.477Z,31.95
2017-12-06T04:13:23.938Z,29.70
2017-12-06T04:14:26.413Z,30.10
2017-12-06T04:15:28.889Z,31.75
2017-12-06T04:16:31.370Z,33.22
2017-12-06T04:17:33.863Z,27.98
2017-12-06T04:18:36.340Z,34.47
2017-12-06T04:19:38.799Z,33.17
2017-12-06T04:20:41.268Z,29.12
2017-12-06T04:21:43.726Z,29.98
2017-12-06T04:22:46.236Z,30.02
2017-12-06T04:23:48.716Z,34.03
2017-12-06T04:24:51.170Z,33.97
2017-12-06T04:25:53.641Z,34.92
2017-12-06T04:26:56.099Z,29.95
2017-12-06T04:27:58.597Z,30.67
2017-12-06T04:29:01.078Z,29.42
2017-12-06T04:30:03.557Z,28.55
2017-12-06T04:31:06.029Z,30.52
2017-12-06T04:32:08.494Z,30.25
2017-12-06T04:33:10.970Z,27.27
2017-12-06T04:34:13.449Z,28.42
2017-12-06T04:35:15.911Z,31.50
2017-12-06T04:36:18.478Z,33.33
2017-12-06T04:37:20.947Z,33.70
2017-12-06T04:38:23.444Z,26.23
2017-12-06T04:39:25.902Z,31.75
2017-12-06T04:40:28.359Z,26.75
2017-12-06T04:41:30.825Z,26.60
2017-12-06T04:42:33.285Z,23.05
2017-12-06T04:43:35.787Z,30.50
2017-12-06T04:44:38.261Z,28.85
2017-12-06T04:45:40.732Z,28.87
2017-12-06T04:46:43.190Z,34.40
2017-12-06T04:47:46.105Z,27.42
2017-12-06T04:48:48.625Z,33.00
2017-12-06T04:49:51.100Z,32.70
2017-12-06T04:50:53.581Z,35.33
2017-12-06T04:51:56.074Z,38.65
2017-12-06T04:52:58.548Z,34.97
2017-12-06T04:54:01.114Z,35.65
2017-12-06T04:55:03.624Z,31.55
2017-12-06T04:56:06.086Z,33.53
2017-12-06T04:57:08.552Z,31.65
2017-12-06T04:58:11.018Z,30.77
2017-12-06T04:59:13.515Z,32.95
2017-12-06T05:00:16.026Z,30.88
2017-12-06T05:01:18.590Z,30.30
2017-12-06T05:02:21.052Z,32.75
2017-12-06T05:03:23.530Z,30.65
2017-12-06T05:04:26.010Z,30.08
2017-12-06T05:05:28.500Z,42.28
2017-12-06T05:06:30.978Z,31.80
2017-12-06T05:07:33.446Z,30.40
2017-12-06T05:08:35.924Z,30.90
2017-12-06T05:09:38.424Z,32.28
2017-12-06T05:10:40.915Z,33.55
2017-12-06T05:11:43.389Z,28.52
2017-12-06T05:12:45.847Z,33.65
2017-12-06T05:13:48.317Z,32.28
2017-12-06T05:14:50.813Z,27.95
2017-12-06T05:15:53.294Z,25.25
2017-12-06T05:16:55.762Z,31.37
2017-12-06T05:17:58.241Z,32.42
2017-12-06T05:19:00.734Z,27.23
2017-12-06T05:20:03.218Z,32.95
2017-12-06T05:21:05.676Z,26.40
2017-12-06T05:22:08.155Z,32.08
2017-12-06T05:23:10.718Z,34.63
2017-12-06T05:24:13.182Z,27.42
2017-12-06T05:25:15.659Z,30.45
2017-12-06T05:26:18.115Z,30.88
2017-12-06T05:27:20.609Z,28.87
2017-12-06T05:28:23.067Z,27.55
2017-12-06T05:29:25.552Z,24.65
2017-12-06T05:30:28.048Z,28.83
2017-12-06T05:31:30.536Z,31.17
2017-12-06T05:32:32.996Z,28.92
2017-12-06T05:33:35.481Z,29.08
2017-12-06T05:34:37.942Z,29.25
2017-12-06T05:35:40.437Z,26.90
2017-12-06T05:36:42.898Z,27.92
2017-12-06T05:37:45.354Z,31.60
2017-12-06T05:38:47.833Z,28.67
2017-12-06T05:39:50.320Z,28.15
2017-12-06T05:40:52.803Z,27.45
2017-12-06T05:41:55.275Z,32.33
2017-12-06T05:42:57.735Z,29.50
2017-12-06T05:44:00.204Z,25.52
2017-12-06T05:45:02.673Z,29.55
2017-12-06T05:46:05.189Z,28.95
2017-12-06T05:47:07.646Z,32.33
2017-12-06T05:48:10.114Z,33.08
2017-12-06T05:49:12.575Z,29.12
2017-12-06T05:50:15.050Z,30.15
2017-12-06T05:51:17.529Z,32.30
2017-12-06T05:52:20.000Z,34.85
2017-12-06T05:53:22.457Z,23.75
2017-12-06T05:54:24.942Z,72.43
2017-12-06T05:55:27.403Z,29.20
2017-12-06T05:56:29.902Z,70.35
2017-12-06T05:57:32.396Z,26.25
2017-12-06T05:58:34.873Z,34.60
2017-12-06T05:59:37.360Z,31.87
2017-12-06T06:00:39.823Z,28.02
2017-12-06T06:01:42.372Z,29.77
2017-12-06T06:02:44.860Z,25.90
2017-12-06T06:03:47.322Z,28.98
2017-12-06T06:04:49.778Z,32.05
2017-12-06T06:05:52.247Z,32.63
2017-12-06T06:06:54.732Z,29.73
2017-12-06T06:07:57.214Z,32.67
2017-12-06T06:08:59.674Z,21.80
2017-12-06T06:10:02.148Z,30.80
2017-12-06T06:11:04.607Z,24.58
2017-12-06T06:12:07.109Z,26.60
2017-12-06T06:13:09.592Z,26.33
2017-12-06T06:14:12.069Z,26.85
2017-12-06T06:15:14.564Z,27.58
2017-12-06T06:16:17.039Z,24.50
2017-12-06T06:17:19.518Z,22.20
2017-12-06T06:18:22.002Z,34.15
2017-12-06T06:19:24.485Z,26.77
2017-12-06T06:20:26.942Z,23.67
2017-12-06T06:21:29.398Z,24.12
2017-12-06T06:22:31.895Z,30.67
2017-12-06T06:23:34.391Z,24.63
2017-12-06T06:24:36.870Z,21.83
2017-12-06T06:25:39.334Z,46.70
2017-12-06T06:26:41.820Z,23.92
2017-12-06T06:27:44.325Z,23.45
2017-12-06T06:28:46.874Z,26.45
2017-12-06T06:29:49.349Z,26.85
2017-12-06T06:30:51.826Z,28.75
2017-12-06T06:31:54.321Z,30.15
2017-12-06T06:32:56.807Z,31.58
2017-12-06T06:33:59.297Z,29.67
2017-12-06T06:35:01.817Z,28.83
2017-12-06T06:36:04.295Z,25.67
2017-12-06T06:37:06.758Z,25.88
2017-12-06T06:38:09.261Z,24.65
2017-12-06T06:39:11.734Z,27.60
2017-12-06T06:40:14.222Z,26.98
2017-12-06T06:41:16.718Z,22.33
2017-12-06T06:42:19.193Z,24.63
2017-12-06T06:43:21.679Z,25.50
2017-12-06T06:44:24.163Z,28.38
2017-12-06T06:45:26.626Z,29.55
2017-12-06T06:46:29.101Z,26.27
2017-12-06T06:47:31.568Z,26.10
2017-12-06T06:48:34.070Z,32.80
2017-12-06T06:49:36.531Z,25.98
2017-12-06T06:50:39.023Z,25.77
2017-12-06T06:51:41.568Z,30.20
2017-12-06T06:52:44.052Z,31.52
2017-12-06T06:53:46.586Z,42.45
2017-12-06T06:54:49.066Z,21.95
2017-12-06T06:55:51.542Z,23.33
2017-12-06T06:56:54.015Z,24.92
2017-12-06T06:57:56.521Z,32.15
2017-12-06T06:58:59.002Z,28.95
2017-12-06T07:00:01.476Z,21.48
2017-12-06T07:01:03.955Z,20.10
2017-12-06T07:02:06.433Z,20.62
2017-12-06T07:03:08.920Z,24.50
2017-12-06T07:04:11.497Z,26.92
2017-12-06T07:05:15.169Z,46.08
2017-12-06T07:06:17.632Z,20.67
2017-12-06T07:07:20.098Z,24.00
2017-12-06T07:08:22.681Z,28.38
2017-12-06T07:09:25.162Z,17.80
2017-12-06T07:10:27.691Z,23.35
2017-12-06T07:11:30.164Z,25.80
2017-12-06T07:12:32.640Z,18.08
2017-12-06T07:13:35.117Z,20.92
2017-12-06T07:14:37.621Z,21.83
2017-12-06T07:15:40.112Z,18.40
2017-12-06T07:16:42.592Z,20.17
2017-12-06T07:17:45.058Z,19.12
2017-12-06T07:18:47.528Z,23.45
2017-12-06T07:19:50.006Z,15.07
2017-12-06T07:20:52.492Z,23.92
2017-12-06T07:21:56.855Z,13.88
2017-12-06T07:23:06.063Z,14.90
2017-12-06T07:25:21.816Z,17.48
2017-12-06T07:26:24.279Z,18.40
2017-12-06T07:27:30.734Z,20.85
2017-12-06T07:28:33.464Z,17.98
2017-12-06T07:29:36.104Z,18.35
2017-12-06T07:30:38.597Z,19.67
2017-12-06T07:31:41.282Z,25.20
2017-12-06T07:32:43.746Z,14.98
2017-12-06T07:33:46.241Z,16.42
2017-12-06T07:34:48.699Z,14.57
2017-12-06T07:35:51.182Z,15.52
2017-12-06T07:36:53.638Z,15.55
2017-12-06T07:37:56.098Z,19.12
2017-12-06T07:38:58.573Z,17.52
2017-12-06T07:40:01.041Z,18.80
2017-12-06T07:41:03.549Z,17.85
2017-12-06T07:42:06.007Z,19.05
2017-12-06T07:43:08.486Z,16.48
2017-12-06T07:44:10.943Z,20.37
2017-12-06T07:45:13.412Z,20.08
2017-12-06T07:46:15.894Z,15.20
2017-12-06T07:47:18.353Z,16.73
2017-12-06T07:48:20.814Z,12.43
2017-12-06T07:49:23.289Z,16.25
2017-12-06T07:50:25.751Z,17.08
2017-12-06T07:51:28.248Z,15.93
2017-12-06T07:52:30.724Z,13.55
2017-12-06T07:53:33.178Z,13.18
2017-12-06T07:54:35.634Z,13.57
2017-12-06T07:55:39.230Z,13.05
2017-12-06T07:56:41.724Z,17.33
2017-12-06T07:57:44.209Z,19.15
2017-12-06T07:58:46.666Z,12.07
2017-12-06T07:59:49.141Z,14.27
2017-12-06T08:00:51.602Z,14.43
2017-12-06T08:01:54.078Z,15.38
2017-12-06T08:02:56.549Z,12.73
2017-12-06T08:03:59.011Z,12.15
2017-12-06T08:05:01.483Z,16.30
2017-12-06T08:06:03.972Z,14.70
2017-12-06T08:07:06.467Z,10.85
2017-12-06T08:08:08.938Z,12.27
2017-12-06T08:09:11.402Z,15.02
2017-12-06T08:10:13.857Z,14.65
2017-12-06T08:11:16.345Z,11.35
2017-12-06T08:12:18.827Z,12.95
2017-12-06T08:13:21.301Z,10.35
2017-12-06T08:14:23.759Z,13.10
2017-12-06T08:15:26.245Z,13.45
2017-12-06T08:16:28.720Z,11.07
2017-12-06T08:17:31.204Z,11.38
2017-12-06T08:18:33.667Z,12.23
2017-12-06T08:19:36.128Z,9.27
2017-12-06T08:20:38.590Z,10.82
2017-12-06T08:21:41.079Z,10.95
2017-12-06T08:22:43.569Z,15.63
2017-12-06T08:23:46.032Z,13.65
2017-12-06T08:24:48.494Z,13.40
2017-12-06T08:25:50.954Z,15.10
2017-12-06T08:26:53.419Z,11.25
2017-12-06T08:27:55.908Z,10.57
2017-12-06T08:28:58.366Z,12.85
2017-12-06T08:30:00.835Z,12.20
2017-12-06T08:31:03.310Z,8.63
2017-12-06T08:32:05.778Z,11.32
2017-12-06T08:33:08.268Z,17.80
2017-12-06T08:34:10.741Z,13.02
2017-12-06T08:35:13.212Z,11.15
2017-12-06T08:36:15.680Z,14.82
2017-12-06T08:37:18.466Z,12.20
2017-12-06T08:38:22.344Z,10.52
2017-12-06T08:39:24.933Z,12.65
2017-12-06T08:40:27.421Z,12.65
2017-12-06T08:41:29.879Z,11.18
2017-12-06T08:42:32.341Z,9.85
2017-12-06T08:43:34.822Z,12.82
2017-12-06T08:44:37.297Z,14.07
2017-12-06T08:45:39.777Z,10.02
2017-12-06T08:46:42.337Z,12.70
2017-12-06T08:47:44.924Z,9.95
2017-12-06T08:48:47.531Z,10.98
2017-12-06T08:49:49.998Z,9.07
2017-12-06T08:50:52.454Z,17.95
2017-12-06T08:51:54.914Z,14.63
2017-12-06T08:52:57.379Z,11.80
2017-12-06T08:53:59.868Z,13.75
2017-12-06T08:55:02.322Z,15.77
2017-12-06T08:56:04.796Z,14.70
2017-12-06T08:57:07.308Z,10.18
2017-12-06T08:58:09.771Z,12.73
2017-12-06T08:59:12.320Z,13.27
2017-12-06T09:00:14.794Z,11.50
2017-12-06T09:01:18.282Z,10.48
2017-12-06T09:02:20.805Z,11.15
2017-12-06T09:03:23.308Z,10.55
2017-12-06T09:04:25.791Z,11.98
2017-12-06T09:05:28.256Z,12.35
2017-12-06T09:06:30.740Z,13.20
2017-12-06T09:07:33.251Z,12.18
2017-12-06T09:08:35.769Z,12.65
2017-12-06T09:09:38.361Z,17.60
2017-12-06T09:10:40.891Z,14.23
2017-12-06T09:11:43.360Z,15.35
2017-12-06T09:12:45.828Z,15.70
2017-12-06T09:13:48.743Z,11.48
2017-12-06T09:14:51.260Z,13.07
2017-12-06T09:15:53.813Z,13.68
2017-12-06T09:16:56.292Z,13.93
2017-12-06T09:17:58.750Z,11.75
2017-12-06T09:19:01.384Z,12.27
2017-12-06T09:20:03.958Z,12.30
2017-12-06T09:21:06.487Z,15.57
2017-12-06T09:22:09.632Z,13.32
2017-12-06T09:23:12.086Z,12.20
2017-12-06T09:24:14.534Z,12.43
2017-12-06T09:25:17.042Z,10.10
2017-12-06T09:26:19.722Z,11.48
2017-12-06T09:27:22.204Z,9.07
2017-12-06T09:28:24.695Z,12.85
2017-12-06T09:29:27.151Z,13.68
2017-12-06T09:30:29.627Z,13.32
2017-12-06T09:31:32.139Z,15.93
2017-12-06T09:32:34.719Z,11.20
2017-12-06T09:33:37.194Z,9.18
2017-12-06T09:34:39.694Z,11.48
2017-12-06T09:35:42.336Z,11.63
2017-12-06T09:36:44.886Z,13.55
2017-12-06T09:37:47.380Z,14.87
2017-12-06T09:38:49.846Z,18.17
2017-12-06T09:39:52.429Z,15.68
2017-12-06T09:40:54.903Z,12.98
2017-12-06T09:41:57.394Z,12.80
2017-12-06T09:42:59.866Z,10.80
2017-12-06T09:44:02.321Z,11.32
2017-12-06T09:45:04.786Z,13.70
2017-12-06T09:46:07.526Z,10.90
2017-12-06T09:47:10.016Z,11.98
2017-12-06T09:48:12.541Z,15.43
2017-12-06T09:49:15.017Z,11.65
2017-12-06T09:50:17.471Z,12.65
2017-12-06T09:51:19.947Z,11.23
2017-12-06T09:52:22.399Z,12.65
2017-12-06T09:53:24.869Z,13.18
2017-12-06T09:54:27.327Z,14.15
2017-12-06T09:55:29.783Z,14.68
2017-12-06T09:56:32.259Z,16.37
2017-12-06T09:57:34.711Z,12.05
2017-12-06T09:58:37.204Z,16.40
2017-12-06T09:59:39.781Z,18.62
2017-12-06T10:00:42.256Z,14.45
2017-12-06T10:01:44.734Z,31.45
2017-12-06T10:02:47.215Z,17.73
2017-12-06T10:03:49.675Z,11.95
2017-12-06T10:04:52.173Z,19.08
2017-12-06T10:05:54.627Z,16.58
2017-12-06T10:06:57.116Z,16.25
2017-12-06T10:07:59.577Z,16.02
2017-12-06T10:09:02.105Z,14.55
2017-12-06T10:10:04.564Z,10.27
2017-12-06T10:11:07.026Z,12.50
2017-12-06T10:12:09.510Z,14.45
2017-12-06T10:13:11.967Z,21.58
2017-12-06T10:14:14.476Z,16.98
2017-12-06T10:15:16.953Z,17.33
2017-12-06T10:16:19.424Z,16.65
2017-12-06T10:17:21.903Z,14.85
2017-12-06T10:18:24.369Z,18.33
2017-12-06T10:19:26.887Z,15.25
2017-12-06T10:20:29.376Z,17.45
2017-12-06T10:21:31.840Z,16.70
2017-12-06T10:22:34.363Z,17.10
2017-12-06T10:23:36.830Z,18.60
2017-12-06T10:24:39.320Z,15.82
2017-12-06T10:25:41.793Z,20.17
2017-12-06T10:26:44.281Z,16.17
2017-12-06T10:27:46.777Z,15.70
2017-12-06T10:28:49.267Z,17.52
2017-12-06T10:29:51.745Z,16.73
2017-12-06T10:30:54.249Z,20.25
2017-12-06T10:31:56.928Z,24.27
2017-12-06T10:32:59.432Z,20.27
2017-12-06T10:34:01.913Z,18.77
2017-12-06T10:35:04.392Z,20.23
2017-12-06T10:36:06.859Z,19.77
2017-12-06T10:37:09.337Z,21.10
2017-12-06T10:38:11.819Z,15.98
2017-12-06T10:39:14.278Z,18.50
2017-12-06T10:40:16.756Z,17.00
2017-12-06T10:41:19.229Z,20.25
2017-12-06T10:42:21.692Z,14.25
2017-12-06T10:43:24.178Z,20.85
2017-12-06T10:44:26.638Z,13.85
2017-12-06T10:45:29.094Z,13.90
2017-12-06T10:46:31.569Z,16.00
2017-12-06T10:47:34.013Z,18.27
2017-12-06T10:48:36.538Z,16.50
2017-12-06T10:49:39.005Z,14.73
2017-12-06T10:50:41.513Z,14.82
2017-12-06T10:51:43.962Z,14.95
2017-12-06T10:52:46.418Z,16.00
2017-12-06T10:53:48.921Z,12.20
2017-12-06T10:54:51.374Z,14.85
2017-12-06T10:55:53.855Z,10.85
2017-12-06T10:56:56.329Z,16.55
2017-12-06T10:57:58.808Z,14.55
2017-12-06T10:59:01.307Z,10.30
2017-12-06T11:00:03.772Z,11.95
2017-12-06T11:01:06.250Z,15.82
2017-12-06T11:02:08.743Z,15.63
2017-12-06T11:03:11.213Z,18.15
2017-12-06T11:04:13.716Z,16.15
2017-12-06T11:05:16.192Z,21.80
2017-12-06T11:06:18.669Z,12.15
2017-12-06T11:07:21.117Z,16.70
2017-12-06T11:08:23.601Z,10.18
2017-12-06T11:09:26.085Z,13.75
2017-12-06T11:10:28.566Z,12.35
2017-12-06T11:11:31.019Z,13.20
2017-12-06T11:12:33.486Z,9.23
2017-12-06T11:13:35.964Z,13.68
2017-12-06T11:14:38.461Z,14.85
2017-12-06T11:15:40.936Z,12.15
2017-12-06T11:16:43.408Z,13.40
2017-12-06T11:17:45.872Z,15.88
2017-12-06T11:18:48.349Z,13.32
2017-12-06T11:19:50.937Z,14.25
2017-12-06T11:20:53.425Z,15.00
2017-12-06T11:21:55.883Z,13.77
2017-12-06T11:22:58.343Z,18.62
2017-12-06T11:24:00.799Z,12.73
2017-12-06T11:25:03.290Z,12.25
2017-12-06T11:26:05.742Z,19.62
2017-12-06T11:27:08.297Z,16.58
2017-12-06T11:28:10.755Z,18.02
2017-12-06T11:29:13.229Z,13.05
2017-12-06T11:30:15.716Z,13.45
2017-12-06T11:31:18.179Z,12.82
2017-12-06T11:32:20.638Z,15.80
2017-12-06T11:33:23.094Z,24.15
2017-12-06T11:34:25.581Z,15.85
2017-12-06T11:35:28.166Z,11.25
2017-12-06T11:36:30.638Z,14.80
2017-12-06T11:37:33.102Z,15.20
2017-12-06T11:38:35.556Z,12.32
2017-12-06T11:39:38.010Z,18.12
2017-12-06T11:40:40.482Z,17.75
2017-12-06T11:41:42.949Z,14.68
2017-12-06T11:42:45.421Z,16.35
2017-12-06T11:43:47.879Z,16.90
2017-12-06T11:44:50.410Z,12.85
2017-12-06T11:45:52.890Z,23.20
2017-12-06T11:46:55.343Z,19.33
2017-12-06T11:47:57.870Z,17.75
2017-12-06T11:49:00.353Z,22.35
2017-12-06T11:50:02.819Z,16.98
2017-12-06T11:51:05.308Z,18.98
2017-12-06T11:52:07.776Z,18.95
2017-12-06T11:53:10.259Z,17.87
2017-12-06T11:54:12.728Z,13.93
2017-12-06T11:55:15.190Z,20.20
2017-12-06T11:56:17.670Z,15.48
2017-12-06T11:57:20.147Z,14.18
2017-12-06T11:58:22.608Z,19.02
2017-12-06T11:59:25.080Z,17.58
2017-12-06T12:00:27.554Z,15.52
2017-12-06T12:01:30.088Z,17.58
2017-12-06T12:02:32.568Z,14.87
2017-12-06T12:03:35.027Z,15.70
2017-12-06T12:04:37.505Z,18.58
2017-12-06T12:05:39.966Z,14.93
2017-12-06T12:06:42.480Z,14.05
2017-12-06T12:07:45.174Z,16.10
2017-12-06T12:08:47.639Z,15.80
2017-12-06T12:09:50.099Z,13.38
2017-12-06T12:10:52.563Z,21.25
2017-12-06T12:11:55.044Z,20.40
2017-12-06T12:12:57.568Z,10.43
2017-12-06T12:14:00.061Z,16.30
2017-12-06T12:15:02.549Z,19.95
2017-12-06T12:16:04.998Z,16.10
2017-12-06T12:17:07.492Z,23.12
2017-12-06T12:18:09.948Z,19.08
2017-12-06T12:19:12.445Z,18.67
2017-12-06T12:20:14.916Z,19.02
2017-12-06T12:21:17.388Z,17.98
2017-12-06T12:22:19.885Z,16.98
2017-12-06T12:23:22.350Z,17.58
2017-12-06T12:24:24.833Z,18.05
2017-12-06T12:25:27.315Z,17.87
2017-12-06T12:26:29.845Z,15.52
2017-12-06T12:27:32.331Z,20.90
2017-12-06T12:28:34.795Z,17.02
2017-12-06T12:29:37.278Z,21.92
2017-12-06T12:30:39.738Z,12.77
2017-12-06T12:31:42.204Z,14.43
2017-12-06T12:32:44.682Z,19.02
2017-12-06T12:33:47.149Z,13.43
2017-12-06T12:34:49.624Z,17.17
2017-12-06T12:35:52.097Z,14.02
2017-12-06T12:36:54.554Z,16.65
2017-12-06T12:37:57.049Z,15.55
2017-12-06T12:38:59.515Z,14.75
2017-12-06T12:40:01.971Z,17.60
2017-12-06T12:41:04.445Z,18.62
2017-12-06T12:42:06.902Z,23.55
2017-12-06T12:43:09.659Z,17.87
2017-12-06T12:44:12.218Z,16.85
2017-12-06T12:45:14.688Z,17.65
2017-12-06T12:46:17.156Z,14.15
2017-12-06T12:47:19.670Z,21.02
2017-12-06T12:48:22.168Z,22.40
2017-12-06T12:49:24.831Z,17.58
2017-12-06T12:50:27.465Z,14.65
2017-12-06T12:51:29.922Z,17.45
2017-12-06T12:52:32.494Z,17.80
2017-12-06T12:53:34.989Z,18.42
2017-12-06T12:54:37.459Z,13.50
2017-12-06T12:55:39.944Z,21.87
2017-12-06T12:56:42.411Z,20.55
2017-12-06T12:57:45.157Z,16.70
2017-12-06T12:58:47.655Z,15.32
2017-12-06T12:59:50.132Z,14.27
2017-12-06T13:00:52.591Z,16.40
2017-12-06T13:01:55.071Z,19.08
2017-12-06T13:02:57.527Z,19.42
2017-12-06T13:04:00.023Z,17.05
2017-12-06T13:05:02.501Z,18.15
2017-12-06T13:06:04.967Z,15.10
2017-12-06T13:07:07.461Z,14.40
2017-12-06T13:08:09.919Z,20.30
2017-12-06T13:09:12.398Z,15.15
2017-12-06T13:10:14.876Z,17.92
2017-12-06T13:11:17.341Z,11.57
2017-12-06T13:12:19.807Z,12.48
2017-12-06T13:13:22.285Z,25.62
2017-12-06T13:14:24.868Z,14.20
2017-12-06T13:15:27.344Z,14.32
2017-12-06T13:16:29.827Z,12.80
2017-12-06T13:17:32.295Z,16.87
2017-12-06T13:18:34.803Z,12.55
2017-12-06T13:19:37.316Z,22.92
2017-12-06T13:20:39.785Z,14.40
2017-12-06T13:21:42.310Z,17.50
2017-12-06T13:22:44.788Z,12.45
2017-12-06T13:23:47.260Z,17.40
2017-12-06T13:24:49.738Z,14.40
2017-12-06T13:25:52.208Z,13.40
2017-12-06T13:26:54.667Z,14.65
2017-12-06T13:27:57.136Z,18.48
2017-12-06T13:28:59.613Z,12.18